Spar Apus — LATT7 — position and weather

sailwx.info

Track history (hours):
 
Tides and Currents Weather Stations Pressure Air Temp Water Temp Dewpoint Dewpoint Depression Visibility Wind Speed Wind Dir Waves Ship Positions

Spar Apus

Last reported at 2017-Dec-17 07:02 UTC. Time now 2017-Dec-18 12:49 UTC.
Position N 16°24' W 062°30'.

Length 200 m; draft 12 m.

Type: Cargo ship. MMSI: 258075000.

Date/timePositionNaut miles runAvg speedWind from/ knotsBaromVisibWave heightAir tempDewpointWater temp
2017-Dec-17 07:02N 16°24' W 062°30'113.9
2017-Dec-17 07:00N 16°25' W 062°30'1413.9
2017-Dec-17 05:58N 16°30' W 062°16'613.9
2017-Dec-17 05:30N 16°32' W 062°10'713.6
2017-Dec-17 05:00N 16°34' W 062°03'713.5
2017-Dec-17 04:30N 16°37' W 061°56'713.3
2017-Dec-17 04:00N 16°39' W 061°50'713.4
2017-Dec-17 03:30N 16°41' W 061°43'713.4
2017-Dec-17 03:01N 16°44' W 061°37'713.3
2017-Dec-17 02:31N 16°46' W 061°30'713.4
2017-Dec-17 02:00N 16°49' W 061°24'713.6
2017-Dec-17 01:30N 16°51' W 061°17'713.4
2017-Dec-17 01:01N 16°53' W 061°11'713.2
2017-Dec-17 00:30N 16°55' W 061°04'713.2
2017-Dec-17 00:00N 16°58' W 060°58'  
Track history (hours):
 
Tides and Currents Weather Stations Pressure Air Temp Water Temp Dewpoint Dewpoint Depression Visibility Wind Speed Wind Dir Waves Ship Positions

Spar Apus

Last reported at 2017-Dec-17 07:02 UTC. Time now 2017-Dec-18 12:49 UTC.
Position N 16°24' W 062°30'.

Length 200 m; draft 12 m.

Type: Cargo ship. MMSI: 258075000.

Date/timePositionNaut miles runAvg speedWind from/ knotsBaromVisibWave heightAir tempDewpointWater temp
2017-Dec-17 07:02N 16°24' W 062°30'113.9
2017-Dec-17 07:00N 16°25' W 062°30'1413.9
2017-Dec-17 05:58N 16°30' W 062°16'613.9
2017-Dec-17 05:30N 16°32' W 062°10'713.6
2017-Dec-17 05:00N 16°34' W 062°03'713.5
2017-Dec-17 04:30N 16°37' W 061°56'713.3
2017-Dec-17 04:00N 16°39' W 061°50'713.4
2017-Dec-17 03:30N 16°41' W 061°43'713.4
2017-Dec-17 03:01N 16°44' W 061°37'713.3
2017-Dec-17 02:31N 16°46' W 061°30'713.4
2017-Dec-17 02:00N 16°49' W 061°24'713.6
2017-Dec-17 01:30N 16°51' W 061°17'713.4
2017-Dec-17 01:01N 16°53' W 061°11'713.2
2017-Dec-17 00:30N 16°55' W 061°04'713.2
2017-Dec-17 00:00N 16°58' W 060°58'  

Dump ship's entire track history